sensor_id;sensor_type;location;lat;lon;timestamp;pressure;altitude;pressure_sealevel;temperature;humidity
16030;BME280;34770;49.272;11.070;2022-07-01T00:01:48;97380.25;;;20.44;83.62
16030;BME280;34770;49.272;11.070;2022-07-01T00:04:15;97407.66;;;20.47;83.54
16030;BME280;34770;49.272;11.070;2022-07-01T00:06:40;97392.84;;;20.39;83.24
16030;BME280;34770;49.272;11.070;2022-07-01T00:09:06;97453.66;;;20.95;82.97
16030;BME280;34770;49.272;11.070;2022-07-01T00:11:31;97403.09;;;20.77;82.38
16030;BME280;34770;49.272;11.070;2022-07-01T00:13:57;97413.66;;;20.49;83.63
16030;BME280;34770;49.272;11.070;2022-07-01T00:16:22;97455.44;;;20.85;84.00
16030;BME280;34770;49.272;11.070;2022-07-01T00:18:48;97400.53;;;20.38;84.14
16030;BME280;34770;49.272;11.070;2022-07-01T00:21:14;97392.06;;;20.38;85.52
16030;BME280;34770;49.272;11.070;2022-07-01T00:23:40;97388.16;;;20.52;84.06
16030;BME280;34770;49.272;11.070;2022-07-01T00:26:05;97382.22;;;20.47;83.08
16030;BME280;34770;49.272;11.070;2022-07-01T00:28:31;97384.38;;;20.39;84.58
16030;BME280;34770;49.272;11.070;2022-07-01T00:30:56;97405.31;;;20.41;85.08
16030;BME280;34770;49.272;11.070;2022-07-01T00:33:21;97463.38;;;20.70;84.94
16030;BME280;34770;49.272;11.070;2022-07-01T00:35:47;97431.97;;;20.17;85.52
16030;BME280;34770;49.272;11.070;2022-07-01T00:38:12;97464.03;;;20.06;87.26
16030;BME280;34770;49.272;11.070;2022-07-01T00:40:38;97458.34;;;19.79;88.67
16030;BME280;34770;49.272;11.070;2022-07-01T00:43:03;97519.13;;;20.18;89.50
16030;BME280;34770;49.272;11.070;2022-07-01T00:45:30;97500.25;;;19.84;90.75
16030;BME280;34770;49.272;11.070;2022-07-01T00:47:55;97496.31;;;19.74;89.77
16030;BME280;34770;49.272;11.070;2022-07-01T00:50:21;97448.38;;;19.09;91.21
16030;BME280;34770;49.272;11.070;2022-07-01T00:52:46;97518.78;;;19.54;91.94
16030;BME280;34770;49.272;11.070;2022-07-01T00:55:13;97537.19;;;19.63;91.20
16030;BME280;34770;49.272;11.070;2022-07-01T00:57:40;97467.53;;;19.25;91.07
16030;BME280;34770;49.272;11.070;2022-07-01T01:00:10;97483.72;;;19.21;91.40
16030;BME280;34770;49.272;11.070;2022-07-01T01:02:36;97503.03;;;19.22;91.51
16030;BME280;34770;49.272;11.070;2022-07-01T01:05:06;97468.03;;;19.16;90.23
16030;BME280;34770;49.272;11.070;2022-07-01T01:07:32;97468.63;;;19.00;91.27
16030;BME280;34770;49.272;11.070;2022-07-01T01:10:01;97505.97;;;19.11;90.63
16030;BME280;34770;49.272;11.070;2022-07-01T01:12:28;97478.34;;;18.95;90.20
16030;BME280;34770;49.272;11.070;2022-07-01T01:14:54;97478.63;;;18.63;90.44
16030;BME280;34770;49.272;11.070;2022-07-01T01:17:21;97523.69;;;18.66;91.13
16030;BME280;34770;49.272;11.070;2022-07-01T01:19:48;97488.50;;;18.37;92.23
16030;BME280;34770;49.272;11.070;2022-07-01T01:22:17;97532.97;;;18.67;91.99
16030;BME280;34770;49.272;11.070;2022-07-01T01:24:44;97516.31;;;18.80;92.16
16030;BME280;34770;49.272;11.070;2022-07-01T01:27:11;97523.38;;;19.03;91.41
16030;BME280;34770;49.272;11.070;2022-07-01T01:29:37;97470.16;;;18.66;91.06
16030;BME280;34770;49.272;11.070;2022-07-01T01:32:04;97471.22;;;18.80;89.75
16030;BME280;34770;49.272;11.070;2022-07-01T01:34:31;97455.16;;;18.31;91.08
16030;BME280;34770;49.272;11.070;2022-07-01T01:36:57;97489.25;;;18.48;90.91
16030;BME280;34770;49.272;11.070;2022-07-01T01:39:23;97456.50;;;18.16;92.86
16030;BME280;34770;49.272;11.070;2022-07-01T01:41:48;97513.34;;;18.53;93.35
16030;BME280;34770;49.272;11.070;2022-07-01T01:44:14;97479.06;;;18.09;92.81
16030;BME280;34770;49.272;11.070;2022-07-01T01:46:39;97476.69;;;18.04;93.11
16030;BME280;34770;49.272;11.070;2022-07-01T01:49:05;97531.94;;;18.46;93.23
16030;BME280;34770;49.272;11.070;2022-07-01T01:51:31;97501.78;;;18.40;93.27
16030;BME280;34770;49.272;11.070;2022-07-01T01:53:57;97551.06;;;18.70;91.35
16030;BME280;34770;49.272;11.070;2022-07-01T01:56:23;97551.41;;;18.72;91.66
16030;BME280;34770;49.272;11.070;2022-07-01T01:58:48;97531.50;;;18.48;91.56
16030;BME280;34770;49.272;11.070;2022-07-01T02:01:16;97565.84;;;18.81;91.93
16030;BME280;34770;49.272;11.070;2022-07-01T02:03:42;97568.72;;;18.74;90.52
16030;BME280;34770;49.272;11.070;2022-07-01T02:06:09;97506.88;;;18.03;92.88
16030;BME280;34770;49.272;11.070;2022-07-01T02:08:38;97571.00;;;18.41;92.65
16030;BME280;34770;49.272;11.070;2022-07-01T02:11:04;97521.75;;;18.04;92.75
16030;BME280;34770;49.272;11.070;2022-07-01T02:13:30;97549.78;;;18.22;92.64
16030;BME280;34770;49.272;11.070;2022-07-01T02:15:56;97545.78;;;18.19;92.42
16030;BME280;34770;49.272;11.070;2022-07-01T02:18:22;97562.59;;;18.33;92.23
16030;BME280;34770;49.272;11.070;2022-07-01T02:20:48;97547.28;;;18.38;90.99
16030;BME280;34770;49.272;11.070;2022-07-01T02:23:13;97468.47;;;17.64;90.52
16030;BME280;34770;49.272;11.070;2022-07-01T02:25:40;97502.97;;;17.82;91.51
16030;BME280;34770;49.272;11.070;2022-07-01T02:28:05;97548.31;;;17.92;93.36
16030;BME280;34770;49.272;11.070;2022-07-01T02:30:31;97487.38;;;17.63;92.24
16030;BME280;34770;49.272;11.070;2022-07-01T02:33:00;97553.13;;;18.06;91.15
16030;BME280;34770;49.272;11.070;2022-07-01T02:35:25;97555.59;;;17.89;91.99
16030;BME280;34770;49.272;11.070;2022-07-01T02:37:51;97510.03;;;17.23;94.72
16030;BME280;34770;49.272;11.070;2022-07-01T02:40:16;97561.25;;;17.82;96.10
16030;BME280;34770;49.272;11.070;2022-07-01T02:42:42;97502.66;;;17.59;94.24
16030;BME280;34770;49.272;11.070;2022-07-01T02:45:07;97535.53;;;17.83;94.68
16030;BME280;34770;49.272;11.070;2022-07-01T02:47:37;97517.22;;;17.43;94.18
16030;BME280;34770;49.272;11.070;2022-07-01T02:50:05;97566.22;;;17.45;96.37
16030;BME280;34770;49.272;11.070;2022-07-01T02:52:31;97521.31;;;17.20;95.82
16030;BME280;34770;49.272;11.070;2022-07-01T02:55:00;97575.09;;;17.40;96.22
16030;BME280;34770;49.272;11.070;2022-07-01T02:57:25;97520.16;;;16.88;97.21
16030;BME280;34770;49.272;11.070;2022-07-01T02:59:51;97549.88;;;16.97;97.99
16030;BME280;34770;49.272;11.070;2022-07-01T03:02:17;97559.09;;;17.01;98.38
16030;BME280;34770;49.272;11.070;2022-07-01T03:04:43;97535.44;;;16.58;99.98
16030;BME280;34770;49.272;11.070;2022-07-01T03:07:09;97555.09;;;16.73;99.56
16030;BME280;34770;49.272;11.070;2022-07-01T03:09:35;97535.81;;;16.64;100.00
16030;BME280;34770;49.272;11.070;2022-07-01T03:12:01;97589.63;;;17.02;99.59
16030;BME280;34770;49.272;11.070;2022-07-01T03:14:46;97519.78;;;16.36;100.00
16030;BME280;34770;49.272;11.070;2022-07-01T03:17:12;97549.50;;;16.48;100.00
16030;BME280;34770;49.272;11.070;2022-07-01T03:19:37;97606.88;;;16.61;100.00
16030;BME280;34770;49.272;11.070;2022-07-01T03:22:03;97557.50;;;16.38;100.00
16030;BME280;34770;49.272;11.070;2022-07-01T03:24:28;97569.53;;;16.46;100.00
16030;BME280;34770;49.272;11.070;2022-07-01T03:26:53;97611.28;;;16.77;100.00
16030;BME280;34770;49.272;11.070;2022-07-01T03:29:19;97571.53;;;16.42;100.00
16030;BME280;34770;49.272;11.070;2022-07-01T03:31:44;97608.13;;;17.00;100.00
16030;BME280;34770;49.272;11.070;2022-07-01T03:34:09;97568.75;;;16.60;100.00
16030;BME280;34770;49.272;11.070;2022-07-01T03:36:35;97629.34;;;16.57;100.00
16030;BME280;34770;49.272;11.070;2022-07-01T03:39:01;97583.97;;;16.37;100.00
16030;BME280;34770;49.272;11.070;2022-07-01T03:41:28;97628.97;;;16.70;100.00
16030;BME280;34770;49.272;11.070;2022-07-01T03:43:54;97575.91;;;16.10;100.00
16030;BME280;34770;49.272;11.070;2022-07-01T03:46:19;97604.00;;;16.18;100.00
16030;BME280;34770;49.272;11.070;2022-07-01T03:48:44;97632.50;;;16.20;100.00
16030;BME280;34770;49.272;11.070;2022-07-01T03:51:10;97638.47;;;16.15;100.00
16030;BME280;34770;49.272;11.070;2022-07-01T03:53:35;97638.91;;;16.24;100.00
16030;BME280;34770;49.272;11.070;2022-07-01T03:56:19;97653.00;;;16.38;100.00
16030;BME280;34770;49.272;11.070;2022-07-01T03:58:45;97634.53;;;16.41;100.00
16030;BME280;34770;49.272;11.070;2022-07-01T04:01:10;97607.97;;;16.06;100.00
16030;BME280;34770;49.272;11.070;2022-07-01T04:03:36;97632.88;;;16.25;100.00
16030;BME280;34770;49.272;11.070;2022-07-01T04:06:01;97673.91;;;16.63;100.00
16030;BME280;34770;49.272;11.070;2022-07-01T04:08:27;97627.28;;;16.29;100.00
16030;BME280;34770;49.272;11.070;2022-07-01T04:10:53;97677.47;;;16.38;100.00
16030;BME280;34770;49.272;11.070;2022-07-01T04:13:22;97689.53;;;16.46;100.00
16030;BME280;34770;49.272;11.070;2022-07-01T04:15:47;97632.44;;;16.05;100.00
16030;BME280;34770;49.272;11.070;2022-07-01T04:18:13;97683.13;;;16.63;100.00
16030;BME280;34770;49.272;11.070;2022-07-01T04:20:38;97620.81;;;16.07;100.00
16030;BME280;34770;49.272;11.070;2022-07-01T04:23:04;97612.00;;;16.16;100.00
16030;BME280;34770;49.272;11.070;2022-07-01T04:25:29;97642.94;;;16.30;100.00
16030;BME280;34770;49.272;11.070;2022-07-01T04:27:56;97638.94;;;16.31;100.00
16030;BME280;34770;49.272;11.070;2022-07-01T04:30:22;97577.50;;;16.01;100.00
16030;BME280;34770;49.272;11.070;2022-07-01T04:32:47;97583.13;;;16.11;100.00
16030;BME280;34770;49.272;11.070;2022-07-01T04:35:13;97622.88;;;16.35;100.00
16030;BME280;34770;49.272;11.070;2022-07-01T04:37:40;97570.72;;;16.13;100.00
16030;BME280;34770;49.272;11.070;2022-07-01T04:40:06;97591.16;;;16.17;100.00
16030;BME280;34770;49.272;11.070;2022-07-01T04:42:32;97604.34;;;15.98;100.00
16030;BME280;34770;49.272;11.070;2022-07-01T04:44:57;97664.16;;;16.20;100.00
16030;BME280;34770;49.272;11.070;2022-07-01T04:47:23;97604.66;;;15.78;100.00
16030;BME280;34770;49.272;11.070;2022-07-01T04:49:48;97611.91;;;15.87;100.00
16030;BME280;34770;49.272;11.070;2022-07-01T04:52:14;97597.03;;;15.75;100.00
16030;BME280;34770;49.272;11.070;2022-07-01T04:54:40;97669.81;;;16.31;100.00
16030;BME280;34770;49.272;11.070;2022-07-01T04:57:06;97628.28;;;15.74;100.00
16030;BME280;34770;49.272;11.070;2022-07-01T04:59:32;97664.75;;;15.70;100.00
16030;BME280;34770;49.272;11.070;2022-07-01T05:01:57;97674.91;;;15.97;100.00
16030;BME280;34770;49.272;11.070;2022-07-01T05:04:24;97605.63;;;15.34;100.00
16030;BME280;34770;49.272;11.070;2022-07-01T05:06:51;97663.09;;;15.66;100.00
16030;BME280;34770;49.272;11.070;2022-07-01T05:09:16;97664.78;;;15.77;100.00
16030;BME280;34770;49.272;11.070;2022-07-01T05:11:42;97599.25;;;15.41;100.00
16030;BME280;34770;49.272;11.070;2022-07-01T05:14:08;97627.50;;;15.80;100.00
16030;BME280;34770;49.272;11.070;2022-07-01T05:16:34;97688.69;;;16.34;100.00
16030;BME280;34770;49.272;11.070;2022-07-01T05:19:00;97650.22;;;15.54;100.00
16030;BME280;34770;49.272;11.070;2022-07-01T05:21:44;97655.03;;;15.53;100.00
16030;BME280;34770;49.272;11.070;2022-07-01T05:24:23;97727.00;;;15.94;100.00
16030;BME280;34770;49.272;11.070;2022-07-01T05:26:48;97729.38;;;15.85;100.00
16030;BME280;34770;49.272;11.070;2022-07-01T05:29:14;97733.09;;;16.03;100.00
16030;BME280;34770;49.272;11.070;2022-07-01T05:31:40;97714.44;;;15.73;100.00
16030;BME280;34770;49.272;11.070;2022-07-01T05:34:06;97720.81;;;15.67;100.00
16030;BME280;34770;49.272;11.070;2022-07-01T05:36:32;97725.63;;;15.66;100.00
16030;BME280;34770;49.272;11.070;2022-07-01T05:38:58;97750.31;;;15.98;100.00
16030;BME280;34770;49.272;11.070;2022-07-01T05:41:23;97757.84;;;15.87;100.00
16030;BME280;34770;49.272;11.070;2022-07-01T05:43:49;97740.81;;;15.61;100.00
16030;BME280;34770;49.272;11.070;2022-07-01T05:46:16;97770.59;;;15.80;100.00
16030;BME280;34770;49.272;11.070;2022-07-01T05:48:42;97774.59;;;15.79;100.00
16030;BME280;34770;49.272;11.070;2022-07-01T05:51:07;97770.75;;;15.46;100.00
16030;BME280;34770;49.272;11.070;2022-07-01T05:53:32;97717.06;;;14.96;100.00
16030;BME280;34770;49.272;11.070;2022-07-01T05:55:58;97784.19;;;15.23;100.00
16030;BME280;34770;49.272;11.070;2022-07-01T05:58:24;97760.63;;;15.31;100.00
16030;BME280;34770;49.272;11.070;2022-07-01T06:00:49;97759.78;;;15.27;100.00
16030;BME280;34770;49.272;11.070;2022-07-01T06:03:15;97758.00;;;15.56;100.00
16030;BME280;34770;49.272;11.070;2022-07-01T06:05:41;97768.81;;;15.51;100.00
16030;BME280;34770;49.272;11.070;2022-07-01T06:08:07;97771.72;;;15.69;100.00
16030;BME280;34770;49.272;11.070;2022-07-01T06:10:36;97746.84;;;15.11;100.00
16030;BME280;34770;49.272;11.070;2022-07-01T06:13:03;97758.91;;;15.15;100.00
16030;BME280;34770;49.272;11.070;2022-07-01T06:15:29;97776.50;;;15.64;100.00
16030;BME280;34770;49.272;11.070;2022-07-01T06:17:55;97780.94;;;15.66;100.00
16030;BME280;34770;49.272;11.070;2022-07-01T06:20:21;97748.63;;;15.34;100.00
16030;BME280;34770;49.272;11.070;2022-07-01T06:22:47;97759.03;;;15.30;100.00
16030;BME280;34770;49.272;11.070;2022-07-01T06:25:12;97732.25;;;14.91;100.00
16030;BME280;34770;49.272;11.070;2022-07-01T06:27:42;97758.13;;;15.19;100.00
16030;BME280;34770;49.272;11.070;2022-07-01T06:30:08;97785.81;;;15.27;100.00
16030;BME280;34770;49.272;11.070;2022-07-01T06:32:34;97778.94;;;15.18;100.00
16030;BME280;34770;49.272;11.070;2022-07-01T06:34:59;97761.06;;;14.92;100.00
16030;BME280;34770;49.272;11.070;2022-07-01T06:37:25;97784.50;;;15.14;100.00
16030;BME280;34770;49.272;11.070;2022-07-01T06:39:50;97774.88;;;15.11;100.00
16030;BME280;34770;49.272;11.070;2022-07-01T06:42:16;97756.16;;;14.81;100.00
16030;BME280;34770;49.272;11.070;2022-07-01T06:44:41;97808.00;;;15.43;100.00
16030;BME280;34770;49.272;11.070;2022-07-01T06:47:07;97783.56;;;14.99;100.00
16030;BME280;34770;49.272;11.070;2022-07-01T06:49:32;97753.00;;;14.83;100.00
16030;BME280;34770;49.272;11.070;2022-07-01T06:51:57;97797.69;;;14.72;100.00
16030;BME280;34770;49.272;11.070;2022-07-01T06:54:23;97756.88;;;14.71;100.00
16030;BME280;34770;49.272;11.070;2022-07-01T06:56:48;97819.56;;;14.97;100.00
16030;BME280;34770;49.272;11.070;2022-07-01T06:59:17;97823.66;;;15.07;100.00
16030;BME280;34770;49.272;11.070;2022-07-01T07:01:44;97725.44;;;14.20;100.00
16030;BME280;34770;49.272;11.070;2022-07-01T07:04:12;97811.75;;;14.45;100.00
16030;BME280;34770;49.272;11.070;2022-07-01T07:06:38;97802.94;;;14.77;100.00
16030;BME280;34770;49.272;11.070;2022-07-01T07:09:03;97833.25;;;15.02;100.00
16030;BME280;34770;49.272;11.070;2022-07-01T07:11:29;97831.03;;;14.84;100.00
16030;BME280;34770;49.272;11.070;2022-07-01T07:13:54;97827.06;;;14.86;100.00
16030;BME280;34770;49.272;11.070;2022-07-01T07:16:19;97844.75;;;14.93;100.00
16030;BME280;34770;49.272;11.070;2022-07-01T07:18:47;97852.19;;;14.78;100.00
16030;BME280;34770;49.272;11.070;2022-07-01T07:21:12;97820.59;;;14.51;100.00
16030;BME280;34770;49.272;11.070;2022-07-01T07:23:38;97817.59;;;14.63;100.00
16030;BME280;34770;49.272;11.070;2022-07-01T07:26:03;97810.31;;;14.59;100.00
16030;BME280;34770;49.272;11.070;2022-07-01T07:28:28;97844.59;;;15.16;100.00
16030;BME280;34770;49.272;11.070;2022-07-01T07:30:54;97833.94;;;14.61;100.00
16030;BME280;34770;49.272;11.070;2022-07-01T07:33:19;97842.03;;;15.00;100.00
16030;BME280;34770;49.272;11.070;2022-07-01T07:35:45;97796.16;;;14.78;100.00
16030;BME280;34770;49.272;11.070;2022-07-01T07:38:10;97798.56;;;14.80;100.00
16030;BME280;34770;49.272;11.070;2022-07-01T07:40:36;97796.44;;;14.66;100.00
16030;BME280;34770;49.272;11.070;2022-07-01T07:43:02;97847.13;;;15.29;100.00
16030;BME280;34770;49.272;11.070;2022-07-01T07:45:29;97838.06;;;15.46;100.00
16030;BME280;34770;49.272;11.070;2022-07-01T07:47:54;97763.84;;;14.54;100.00
16030;BME280;34770;49.272;11.070;2022-07-01T07:50:21;97844.13;;;15.07;100.00
16030;BME280;34770;49.272;11.070;2022-07-01T07:52:47;97802.63;;;14.86;100.00
16030;BME280;34770;49.272;11.070;2022-07-01T07:55:13;97855.16;;;14.93;100.00
16030;BME280;34770;49.272;11.070;2022-07-01T07:57:40;97812.34;;;14.62;100.00
16030;BME280;34770;49.272;11.070;2022-07-01T08:00:07;97798.56;;;14.80;100.00
16030;BME280;34770;49.272;11.070;2022-07-01T08:02:33;97848.28;;;14.87;100.00
16030;BME280;34770;49.272;11.070;2022-07-01T08:04:59;97832.88;;;14.70;100.00
16030;BME280;34770;49.272;11.070;2022-07-01T08:07:24;97861.94;;;14.92;100.00
16030;BME280;34770;49.272;11.070;2022-07-01T08:09:50;97885.28;;;14.69;100.00
16030;BME280;34770;49.272;11.070;2022-07-01T08:12:16;97823.78;;;14.49;100.00
16030;BME280;34770;49.272;11.070;2022-07-01T08:14:42;97851.09;;;14.87;100.00
16030;BME280;34770;49.272;11.070;2022-07-01T08:17:08;97883.13;;;15.23;100.00
16030;BME280;34770;49.272;11.070;2022-07-01T08:19:33;97882.84;;;14.98;100.00
16030;BME280;34770;49.272;11.070;2022-07-01T08:21:58;97873.69;;;15.01;100.00
16030;BME280;34770;49.272;11.070;2022-07-01T08:24:24;97869.09;;;15.23;100.00
16030;BME280;34770;49.272;11.070;2022-07-01T08:26:49;97875.13;;;15.25;100.00
16030;BME280;34770;49.272;11.070;2022-07-01T08:29:14;97902.06;;;15.37;100.00
16030;BME280;34770;49.272;11.070;2022-07-01T08:31:40;97904.59;;;15.08;100.00
16030;BME280;34770;49.272;11.070;2022-07-01T08:34:05;97915.66;;;15.31;100.00
16030;BME280;34770;49.272;11.070;2022-07-01T08:36:32;97925.13;;;14.86;100.00
16030;BME280;34770;49.272;11.070;2022-07-01T08:38:58;97928.78;;;15.24;100.00
16030;BME280;34770;49.272;11.070;2022-07-01T08:41:24;97921.50;;;15.15;100.00
16030;BME280;34770;49.272;11.070;2022-07-01T08:43:49;97926.09;;;15.35;100.00
16030;BME280;34770;49.272;11.070;2022-07-01T08:46:14;97939.03;;;15.46;100.00
16030;BME280;34770;49.272;11.070;2022-07-01T08:48:44;97945.94;;;15.19;100.00
16030;BME280;34770;49.272;11.070;2022-07-01T08:51:10;97938.00;;;15.24;100.00
16030;BME280;34770;49.272;11.070;2022-07-01T08:53:36;97936.25;;;15.12;100.00
16030;BME280;34770;49.272;11.070;2022-07-01T08:56:03;97940.50;;;15.33;100.00
16030;BME280;34770;49.272;11.070;2022-07-01T08:58:51;97945.47;;;15.47;100.00
16030;BME280;34770;49.272;11.070;2022-07-01T09:01:22;97949.94;;;15.55;100.00
16030;BME280;34770;49.272;11.070;2022-07-01T09:03:49;97946.19;;;15.40;100.00
16030;BME280;34770;49.272;11.070;2022-07-01T09:06:16;97944.06;;;15.68;100.00
16030;BME280;34770;49.272;11.070;2022-07-01T09:08:42;97947.91;;;15.90;100.00
16030;BME280;34770;49.272;11.070;2022-07-01T09:11:26;97957.13;;;15.53;100.00
16030;BME280;34770;49.272;11.070;2022-07-01T09:14:08;97956.13;;;15.34;100.00
16030;BME280;34770;49.272;11.070;2022-07-01T09:16:44;97967.97;;;15.54;100.00
16030;BME280;34770;49.272;11.070;2022-07-01T09:19:11;97971.03;;;15.42;100.00
16030;BME280;34770;49.272;11.070;2022-07-01T09:21:37;97939.63;;;15.25;100.00
16030;BME280;34770;49.272;11.070;2022-07-01T09:24:05;97971.19;;;15.56;100.00
16030;BME280;34770;49.272;11.070;2022-07-01T09:26:31;97974.97;;;15.71;100.00
16030;BME280;34770;49.272;11.070;2022-07-01T09:28:57;97974.53;;;16.07;100.00
16030;BME280;34770;49.272;11.070;2022-07-01T09:31:33;97965.75;;;16.16;100.00
16030;BME280;34770;49.272;11.070;2022-07-01T09:34:06;97957.06;;;15.83;100.00
16030;BME280;34770;49.272;11.070;2022-07-01T09:36:37;97959.06;;;15.83;100.00
16030;BME280;34770;49.272;11.070;2022-07-01T09:39:04;97943.84;;;15.46;100.00
16030;BME280;34770;49.272;11.070;2022-07-01T09:41:36;97975.72;;;15.68;100.00
16030;BME280;34770;49.272;11.070;2022-07-01T09:44:07;97973.25;;;15.59;100.00
16030;BME280;34770;49.272;11.070;2022-07-01T09:46:33;97968.19;;;15.38;100.00
16030;BME280;34770;49.272;11.070;2022-07-01T09:48:58;97956.13;;;15.34;100.00
16030;BME280;34770;49.272;11.070;2022-07-01T09:51:24;97947.72;;;15.72;100.00
16030;BME280;34770;49.272;11.070;2022-07-01T09:53:49;97949.28;;;15.69;100.00
16030;BME280;34770;49.272;11.070;2022-07-01T09:56:14;97959.84;;;15.45;100.00
16030;BME280;34770;49.272;11.070;2022-07-01T09:58:40;97951.66;;;15.67;100.00
16030;BME280;34770;49.272;11.070;2022-07-01T10:01:08;97950.59;;;15.41;100.00
16030;BME280;34770;49.272;11.070;2022-07-01T10:03:37;97941.03;;;15.46;100.00
16030;BME280;34770;49.272;11.070;2022-07-01T10:14:16;97973.72;;;15.31;100.00
16030;BME280;34770;49.272;11.070;2022-07-01T10:16:45;97975.16;;;15.52;100.00
16030;BME280;34770;49.272;11.070;2022-07-01T10:21:45;97989.31;;;15.28;100.00
16030;BME280;34770;49.272;11.070;2022-07-01T10:24:13;97980.59;;;15.03;100.00
16030;BME280;34770;49.272;11.070;2022-07-01T10:26:39;97980.72;;;15.14;100.00
16030;BME280;34770;49.272;11.070;2022-07-01T10:29:04;97976.22;;;14.75;100.00
16030;BME280;34770;49.272;11.070;2022-07-01T10:31:37;98000.09;;;14.96;100.00
16030;BME280;34770;49.272;11.070;2022-07-01T10:34:03;97962.31;;;14.56;100.00
16030;BME280;34770;49.272;11.070;2022-07-01T10:36:31;97981.75;;;14.72;100.00
16030;BME280;34770;49.272;11.070;2022-07-01T10:41:27;97997.63;;;14.64;100.00
16030;BME280;34770;49.272;11.070;2022-07-01T10:43:56;97977.16;;;14.33;100.00
16030;BME280;34770;49.272;11.070;2022-07-01T10:46:41;98037.00;;;14.71;100.00
16030;BME280;34770;49.272;11.070;2022-07-01T10:49:13;98045.81;;;15.00;100.00
16030;BME280;34770;49.272;11.070;2022-07-01T10:51:49;98056.97;;;14.96;100.00
16030;BME280;34770;49.272;11.070;2022-07-01T10:59:48;98067.47;;;15.30;100.00
16030;BME280;34770;49.272;11.070;2022-07-01T11:02:16;98068.59;;;15.25;100.00
16030;BME280;34770;49.272;11.070;2022-07-01T11:04:42;98066.72;;;15.37;100.00
16030;BME280;34770;49.272;11.070;2022-07-01T11:07:08;98072.78;;;15.39;100.00
16030;BME280;34770;49.272;11.070;2022-07-01T11:09:34;97999.78;;;14.47;100.00
16030;BME280;34770;49.272;11.070;2022-07-01T11:11:59;98061.13;;;15.06;100.00
16030;BME280;34770;49.272;11.070;2022-07-01T11:14:26;98005.69;;;14.65;100.00
16030;BME280;34770;49.272;11.070;2022-07-01T11:16:51;98020.69;;;15.07;100.00
16030;BME280;34770;49.272;11.070;2022-07-01T11:19:18;98040.69;;;15.36;100.00
16030;BME280;34770;49.272;11.070;2022-07-01T11:21:51;98038.97;;;15.28;100.00
16030;BME280;34770;49.272;11.070;2022-07-01T11:24:17;98041.53;;;15.40;100.00
16030;BME280;34770;49.272;11.070;2022-07-01T11:26:43;98036.63;;;15.03;100.00
16030;BME280;34770;49.272;11.070;2022-07-01T11:29:12;98067.53;;;15.37;100.00
16030;BME280;34770;49.272;11.070;2022-07-01T11:31:38;98061.75;;;15.23;100.00
16030;BME280;34770;49.272;11.070;2022-07-01T11:34:04;98071.44;;;15.29;100.00
16030;BME280;34770;49.272;11.070;2022-07-01T11:36:30;98064.06;;;15.17;100.00
16030;BME280;34770;49.272;11.070;2022-07-01T11:39:17;98071.72;;;14.93;100.00
16030;BME280;34770;49.272;11.070;2022-07-01T11:41:53;98070.97;;;15.23;100.00
16030;BME280;34770;49.272;11.070;2022-07-01T11:44:38;98032.59;;;15.00;100.00
16030;BME280;34770;49.272;11.070;2022-07-01T11:47:05;98054.88;;;14.90;100.00
16030;BME280;34770;49.272;11.070;2022-07-01T11:49:31;98044.00;;;14.84;100.00
16030;BME280;34770;49.272;11.070;2022-07-01T11:52:04;98061.63;;;14.62;100.00
16030;BME280;34770;49.272;11.070;2022-07-01T11:54:33;98032.53;;;14.43;100.00
16030;BME280;34770;49.272;11.070;2022-07-01T11:57:14;98057.03;;;14.73;100.00
16030;BME280;34770;49.272;11.070;2022-07-01T11:59:42;98065.44;;;14.73;100.00
16030;BME280;34770;49.272;11.070;2022-07-01T12:02:09;98069.22;;;14.84;100.00
16030;BME280;34770;49.272;11.070;2022-07-01T12:04:37;98051.50;;;14.77;100.00
16030;BME280;34770;49.272;11.070;2022-07-01T12:07:03;98038.94;;;14.67;100.00
16030;BME280;34770;49.272;11.070;2022-07-01T12:09:29;98028.44;;;14.64;100.00
16030;BME280;34770;49.272;11.070;2022-07-01T12:11:55;98053.13;;;14.78;100.00
16030;BME280;34770;49.272;11.070;2022-07-01T12:14:29;98054.72;;;14.79;100.00
16030;BME280;34770;49.272;11.070;2022-07-01T12:16:58;98050.03;;;14.87;100.00
16030;BME280;34770;49.272;11.070;2022-07-01T12:19:43;98054.97;;;14.97;100.00
16030;BME280;34770;49.272;11.070;2022-07-01T12:22:14;98045.50;;;14.78;100.00
16030;BME280;34770;49.272;11.070;2022-07-01T12:24:41;98055.75;;;14.67;100.00
16030;BME280;34770;49.272;11.070;2022-07-01T12:27:08;98044.34;;;15.10;100.00
16030;BME280;34770;49.272;11.070;2022-07-01T12:32:06;98035.44;;;14.74;100.00
16030;BME280;34770;49.272;11.070;2022-07-01T12:34:48;98032.00;;;14.61;100.00
16030;BME280;34770;49.272;11.070;2022-07-01T12:39:47;98029.41;;;14.48;100.00
16030;BME280;34770;49.272;11.070;2022-07-01T12:42:21;98061.34;;;14.67;100.00
16030;BME280;34770;49.272;11.070;2022-07-01T12:44:47;98085.75;;;14.66;100.00
16030;BME280;34770;49.272;11.070;2022-07-01T12:47:20;98074.31;;;14.56;100.00
16030;BME280;34770;49.272;11.070;2022-07-01T12:49:45;98053.31;;;14.42;100.00
16030;BME280;34770;49.272;11.070;2022-07-01T12:52:26;98087.75;;;14.66;100.00
16030;BME280;34770;49.272;11.070;2022-07-01T12:54:52;98094.31;;;14.54;100.00
16030;BME280;34770;49.272;11.070;2022-07-01T12:57:28;98106.53;;;14.65;100.00
16030;BME280;34770;49.272;11.070;2022-07-01T12:59:54;98121.09;;;14.75;100.00
16030;BME280;34770;49.272;11.070;2022-07-01T13:02:19;98144.97;;;14.45;100.00
16030;BME280;34770;49.272;11.070;2022-07-01T13:04:45;98147.03;;;14.48;100.00
16030;BME280;34770;49.272;11.070;2022-07-01T13:07:10;98162.63;;;14.69;100.00